Time;durP1;ratioP1;P1;durP2;ratioP2;P2;SDS_P1;SDS_P2;PMS_P1;PMS_P2;Temp;Humidity;BMP_temperature;BMP_pressure;BME280_temperature;BME280_humidity;BME280_pressure;Samples;Min_cycle;Max_cycle;Signal;HPM_P1;HPM_P2
2022/08/06 00:02:23;;;;;;;5.63;4.70;;;;;;;28.80;43.12;98807.50;5084938;28;20113;-70
2022/08/06 00:04:51;;;;;;;5.28;4.22;;;;;;;28.24;42.97;98731.75;5067742;28;20048;-70
2022/08/06 00:07:18;;;;;;;5.00;4.50;;;;;;;28.63;42.87;98789.97;5085347;28;20044;-70
2022/08/06 00:09:46;;;;;;;4.97;3.97;;;;;;;28.71;43.12;98814.25;5084787;28;20109;-70
2022/08/06 00:12:13;;;;;;;5.35;4.57;;;;;;;28.66;43.29;98819.50;5085162;28;20056;-70
2022/08/06 00:14:40;;;;;;;5.22;4.72;;;;;;;28.66;43.85;98830.41;5085092;28;20056;-69
2022/08/06 00:17:09;;;;;;;5.38;4.82;;;;;;;28.70;43.74;98842.56;5085082;28;20118;-70
2022/08/06 00:19:36;;;;;;;5.30;4.80;;;;;;;28.68;43.26;98841.94;5067536;28;20251;-69
2022/08/06 00:22:04;;;;;;;4.55;4.03;;;;;;;28.66;43.63;98842.16;5085000;28;20065;-70
2022/08/06 00:24:31;;;;;;;5.70;4.03;;;;;;;28.64;43.25;98848.88;5085078;28;20060;-70
2022/08/06 00:26:58;;;;;;;6.10;4.25;;;;;;;28.63;43.16;98849.94;5085074;28;20255;-70
2022/08/06 00:29:25;;;;;;;7.63;4.60;;;;;;;28.48;43.46;98828.34;5085153;28;20093;-70
2022/08/06 00:31:52;;;;;;;7.75;5.15;;;;;;;28.53;42.75;98838.63;5084618;28;20112;-71
2022/08/06 00:34:21;;;;;;;6.70;3.85;;;;;;;28.52;43.10;98840.50;5084618;28;20052;-70
2022/08/06 00:36:48;;;;;;;5.22;3.30;;;;;;;28.51;42.83;98849.75;5085078;28;20316;-70
2022/08/06 00:39:15;;;;;;;3.88;3.45;;;;;;;28.43;43.50;98849.97;5084911;28;20305;-69
2022/08/06 00:41:43;;;;;;;4.53;3.83;;;;;;;28.45;43.18;98858.75;5084969;28;20309;-70
2022/08/06 00:44:10;;;;;;;4.68;3.17;;;;;;;28.46;42.90;98862.34;5084752;28;20102;-71
2022/08/06 00:46:37;;;;;;;5.20;4.18;;;;;;;28.47;43.24;98872.19;5084999;28;20205;-71
2022/08/06 00:49:04;;;;;;;4.80;3.97;;;;;;;28.46;43.38;98876.78;5067600;28;20056;-70
2022/08/06 00:51:34;;;;;;;4.72;3.67;;;;;;;28.42;43.09;98873.66;5085123;28;20110;-70
2022/08/06 00:54:02;;;;;;;4.43;3.35;;;;;;;28.40;42.82;98878.44;5084515;28;20056;-69
2022/08/06 00:56:29;;;;;;;4.82;3.78;;;;;;;28.35;42.98;98889.13;5084779;28;20056;-69
2022/08/06 00:58:56;;;;;;;8.02;6.85;;;;;;;28.34;42.91;98892.91;5084669;28;20185;-69
2022/08/06 01:01:23;;;;;;;6.85;6.15;;;;;;;28.30;43.36;98890.81;5087168;28;20060;-69
2022/08/06 01:03:51;;;;;;;4.95;4.35;;;;;;;28.37;42.68;98905.28;5088576;28;20233;-69
2022/08/06 01:06:18;;;;;;;5.85;3.83;;;;;;;28.32;42.73;98905.91;5070733;28;20056;-69
2022/08/06 01:08:49;;;;;;;3.95;3.55;;;;;;;28.22;42.55;98891.88;5089042;28;20039;-69
2022/08/06 01:11:16;;;;;;;5.38;3.90;;;;;;;28.32;42.70;98918.69;5088139;28;20359;-69
2022/08/06 01:13:43;;;;;;;4.57;3.60;;;;;;;28.13;42.38;98893.13;5088124;28;20063;-69
2022/08/06 01:16:16;;;;;;;6.07;3.63;;;;;;;28.28;42.26;98926.44;5088113;28;20098;-69
2022/08/06 01:18:51;;;;;;;4.35;3.50;;;;;;;28.16;42.81;98941.72;5087734;28;20071;-69
2022/08/06 01:21:43;;;;;;;5.13;3.83;;;;;;;28.12;42.70;98943.19;5088134;28;20099;-69
2022/08/06 01:24:54;;;;;;;3.88;3.45;;;;;;;28.01;43.45;98950.09;5087678;28;20057;-69
2022/08/06 01:27:37;;;;;;;4.72;3.60;;;;;;;27.98;43.45;98947.78;5062597;28;20056;-69
2022/08/06 01:30:07;;;;;;;5.00;3.85;;;;;;;27.85;43.82;98934.13;5087754;28;20094;-69
2022/08/06 01:32:39;;;;;;;4.80;3.65;;;;;;;27.95;43.56;98961.81;5087869;28;20068;-70
2022/08/06 01:35:11;;;;;;;6.45;3.35;;;;;;;27.85;43.83;98971.41;5087722;28;20101;-69
2022/08/06 01:37:46;;;;;;;5.85;3.80;;;;;;;27.78;43.63;98950.41;5087336;28;20375;-69
2022/08/06 18:12:36;;;;;;;4.70;2.67;;;;;;;22.80;49.56;99661.78;5103822;27;20896;-66
2022/08/06 18:15:04;;;;;;;3.80;3.25;;;;;;;22.80;49.70;99662.66;5102522;28;20217;-68
2022/08/06 18:17:31;;;;;;;4.50;3.30;;;;;;;22.87;49.74;99649.34;5103016;28;20228;-67
2022/08/06 18:19:59;;;;;;;5.65;3.60;;;;;;;22.93;49.87;99655.00;5102727;28;20216;-68
2022/08/06 18:22:26;;;;;;;4.25;2.85;;;;;;;22.85;49.32;99632.44;5102579;28;20053;-68
2022/08/06 18:24:55;;;;;;;7.57;6.32;;;;;;;22.99;49.65;99643.56;5102848;28;20056;-68
2022/08/06 18:27:24;;;;;;;5.10;3.58;;;;;;;23.02;49.66;99648.66;5102724;28;20064;-68
2022/08/06 18:29:53;;;;;;;6.20;4.93;;;;;;;23.09;48.94;99648.00;5102718;28;20059;-68
2022/08/06 18:32:21;;;;;;;4.72;3.53;;;;;;;23.12;49.18;99642.28;5102534;28;20075;-68
2022/08/06 18:34:49;;;;;;;5.00;3.65;;;;;;;23.11;49.44;99646.84;5102261;28;20208;-68
2022/08/06 18:37:16;;;;;;;4.05;3.20;;;;;;;23.12;48.84;99645.84;5102438;28;20056;-68
2022/08/06 18:39:44;;;;;;;5.60;3.03;;;;;;;23.15;49.08;99647.38;5102725;28;20067;-68
2022/08/06 18:42:11;;;;;;;5.28;4.03;;;;;;;23.14;48.76;99651.94;5102023;28;20052;-68
2022/08/06 18:44:39;;;;;;;7.30;3.60;;;;;;;23.21;48.63;99661.13;5102272;28;20055;-68
2022/08/06 18:47:15;;;;;;;4.72;3.70;;;;;;;23.16;48.65;99657.19;5101920;28;20056;-68
2022/08/06 18:49:42;;;;;;;5.28;3.28;;;;;;;23.14;48.60;99659.19;5102087;28;20064;-68
2022/08/06 18:52:13;;;;;;;5.53;3.47;;;;;;;23.16;48.69;99668.00;5101941;28;20052;-68
2022/08/06 18:54:43;;;;;;;3.72;2.85;;;;;;;23.16;48.02;99663.44;5102209;28;20067;-68
2022/08/06 18:57:12;;;;;;;3.63;2.47;;;;;;;23.04;48.39;99662.00;5102235;28;20300;-68
2022/08/06 18:59:40;;;;;;;5.72;4.03;;;;;;;23.18;47.69;99672.25;5102366;28;20058;-67
2022/08/06 19:02:11;;;;;;;4.57;3.47;;;;;;;23.18;47.77;99674.97;5101949;28;20208;-68
2022/08/06 19:04:39;;;;;;;7.20;3.63;;;;;;;22.83;48.25;99610.16;5102042;28;20056;-68
2022/08/06 19:07:10;;;;;;;4.35;3.42;;;;;;;23.19;47.75;99671.25;5101972;28;20063;-68
2022/08/06 19:09:39;;;;;;;4.20;3.50;;;;;;;22.74;47.98;99614.63;5102244;28;20067;-68
2022/08/06 19:12:10;;;;;;;5.93;4.95;;;;;;;23.19;47.85;99684.75;5101171;28;20320;-69
2022/08/06 19:14:39;;;;;;;5.10;4.53;;;;;;;23.11;47.85;99683.84;5101505;28;20060;-68
2022/08/06 19:17:08;;;;;;;5.80;4.47;;;;;;;23.15;47.94;99683.38;5101646;28;20040;-68
2022/08/06 19:19:37;;;;;;;4.22;3.53;;;;;;;23.18;47.28;99688.47;5101369;28;20063;-68
2022/08/06 19:22:06;;;;;;;5.82;3.60;;;;;;;23.18;48.22;99683.06;5098303;28;20048;-69
2022/08/06 19:24:33;;;;;;;4.15;3.38;;;;;;;23.18;47.67;99687.63;5087915;28;20044;-68
2022/08/06 19:27:02;;;;;;;3.63;2.63;;;;;;;23.05;47.68;99669.97;5088054;28;20313;-68
2022/08/06 19:29:29;;;;;;;4.60;3.15;;;;;;;23.03;47.93;99654.91;5088082;28;20052;-68
2022/08/06 19:31:57;;;;;;;4.50;3.00;;;;;;;23.14;47.88;99680.84;5086936;28;20059;-68
2022/08/06 19:34:24;;;;;;;3.95;2.70;;;;;;;23.11;47.66;99684.69;5088014;28;20068;-69
2022/08/06 19:36:53;;;;;;;4.82;3.70;;;;;;;23.15;47.77;99682.53;5086734;28;20185;-69
2022/08/06 19:39:22;;;;;;;3.63;3.22;;;;;;;23.10;47.51;99685.69;5087877;28;20052;-69
2022/08/06 19:41:50;;;;;;;5.00;3.50;;;;;;;23.11;47.66;99682.00;5087476;28;20048;-69
2022/08/06 19:44:18;;;;;;;5.50;3.20;;;;;;;22.99;47.37;99669.72;5087815;28;20052;-69
2022/08/06 19:46:46;;;;;;;4.55;3.47;;;;;;;22.98;47.50;99670.75;5087568;28;20336;-69
2022/08/06 19:49:13;;;;;;;3.88;2.97;;;;;;;23.08;47.69;99698.53;5087530;28;20052;-69
2022/08/06 19:51:40;;;;;;;5.38;3.75;;;;;;;23.05;47.86;99697.00;5087445;28;20060;-67
2022/08/06 19:54:09;;;;;;;4.45;4.00;;;;;;;23.12;47.46;99708.03;5087598;28;20056;-68
2022/08/06 19:56:37;;;;;;;5.05;4.18;;;;;;;22.99;47.30;99686.78;5087379;28;20047;-68
2022/08/06 19:59:04;;;;;;;5.80;4.57;;;;;;;23.07;47.32;99712.19;5087613;28;20056;-71
2022/08/06 20:01:32;;;;;;;6.25;3.95;;;;;;;23.08;47.16;99708.50;5087743;28;20044;-68
2022/08/06 20:03:59;;;;;;;5.07;3.85;;;;;;;23.09;47.29;99711.03;5087470;28;20053;-68
2022/08/06 20:06:27;;;;;;;5.03;3.88;;;;;;;23.09;47.57;99707.47;5087120;28;20253;-69
2022/08/06 20:08:54;;;;;;;4.80;4.30;;;;;;;23.03;47.26;99708.97;5087245;28;20221;-69
2022/08/06 20:11:24;;;;;;;5.30;4.18;;;;;;;22.88;47.21;99681.63;5087015;28;20344;-69
2022/08/06 20:13:52;;;;;;;6.18;4.47;;;;;;;23.02;47.39;99708.09;5087445;28;20056;-68
2022/08/06 20:16:20;;;;;;;6.38;3.95;;;;;;;23.02;47.10;99709.97;5087283;28;20057;-68
2022/08/06 20:18:47;;;;;;;4.75;3.85;;;;;;;22.98;47.22;99713.97;5087188;28;20201;-69
